createdAt,value
2022-12-19T00:01:23.018Z,28.80
2022-12-19T00:04:12.339Z,26.80
2022-12-19T00:06:58.856Z,25.17
2022-12-19T00:09:45.092Z,24.30
2022-12-19T00:12:31.421Z,25.37
2022-12-19T00:15:17.650Z,27.80
2022-12-19T00:18:03.977Z,31.97
2022-12-19T00:21:02.385Z,28.77
2022-12-19T00:23:49.416Z,32.97
2022-12-19T00:26:36.887Z,24.20
2022-12-19T00:29:23.544Z,27.90
2022-12-19T00:32:13.329Z,23.97
2022-12-19T00:35:02.433Z,29.07
2022-12-19T00:37:49.679Z,25.47
2022-12-19T00:40:36.372Z,27.53
2022-12-19T00:43:22.450Z,31.20
2022-12-19T00:46:11.555Z,25.20
2022-12-19T00:48:57.632Z,28.87
2022-12-19T00:51:44.224Z,26.83
2022-12-19T00:54:30.948Z,25.13
2022-12-19T00:57:19.539Z,32.47
2022-12-19T01:00:06.604Z,27.37
2022-12-19T01:02:53.324Z,26.20
2022-12-19T01:05:41.245Z,26.27
2022-12-19T01:08:28.685Z,28.10
2022-12-19T01:11:15.897Z,27.83
2022-12-19T01:14:02.110Z,28.30
2022-12-19T01:16:48.466Z,26.77
2022-12-19T01:19:38.975Z,23.17
2022-12-19T01:22:28.665Z,28.33
2022-12-19T01:25:15.420Z,34.83
2022-12-19T01:28:02.824Z,22.73
2022-12-19T01:30:51.892Z,29.43
2022-12-19T01:33:41.750Z,27.90
2022-12-19T01:36:30.332Z,27.53
2022-12-19T01:39:16.835Z,28.27
2022-12-19T01:42:03.020Z,21.47
2022-12-19T01:45:19.054Z,28.87
2022-12-19T01:48:19.342Z,25.10
2022-12-19T01:51:22.865Z,24.67
2022-12-19T01:54:13.632Z,28.07
2022-12-19T01:57:02.588Z,24.40
2022-12-19T01:59:54.131Z,27.40
2022-12-19T02:02:46.402Z,23.70
2022-12-19T02:05:33.901Z,25.07
2022-12-19T02:08:21.389Z,24.23
2022-12-19T02:11:08.553Z,26.60
2022-12-19T02:13:56.074Z,26.23
2022-12-19T02:17:00.098Z,30.80
2022-12-19T02:20:14.648Z,26.97
2022-12-19T02:23:00.837Z,24.67
2022-12-19T02:26:02.534Z,27.80
2022-12-19T02:29:22.416Z,28.80
2022-12-19T02:32:47.556Z,28.57
2022-12-19T02:35:46.734Z,24.70
2022-12-19T02:38:39.512Z,28.73
2022-12-19T02:41:43.037Z,28.13
2022-12-19T02:44:39.649Z,28.83
2022-12-19T02:47:27.007Z,26.53
2022-12-19T02:50:14.446Z,29.00
2022-12-19T02:53:01.280Z,33.33
2022-12-19T02:56:12.589Z,20.10
2022-12-19T02:59:28.231Z,30.30
2022-12-19T03:02:41.955Z,37.97
2022-12-19T03:05:36.146Z,31.60
2022-12-19T03:08:29.820Z,25.23
2022-12-19T03:11:17.958Z,27.90
2022-12-19T03:14:12.051Z,30.83
2022-12-19T03:17:06.553Z,28.20
2022-12-19T03:19:53.020Z,29.23
2022-12-19T03:22:39.651Z,31.00
2022-12-19T03:25:29.905Z,29.13
2022-12-19T03:28:27.062Z,30.50
2022-12-19T03:31:15.936Z,31.53
2022-12-19T03:34:08.553Z,26.23
2022-12-19T03:36:59.003Z,31.17
2022-12-19T03:39:50.859Z,27.60
2022-12-19T03:42:59.045Z,30.13
2022-12-19T03:45:57.382Z,33.93
2022-12-19T03:48:45.326Z,29.53
2022-12-19T03:51:53.727Z,30.77
2022-12-19T03:54:54.526Z,29.53
2022-12-19T03:57:59.080Z,30.97
2022-12-19T04:00:48.413Z,29.07
2022-12-19T04:03:35.808Z,31.07
2022-12-19T04:06:22.935Z,29.47
2022-12-19T04:09:10.222Z,29.17
2022-12-19T04:12:04.780Z,32.43
2022-12-19T04:14:51.477Z,33.90
2022-12-19T04:17:47.188Z,30.00
2022-12-19T04:20:38.546Z,23.50
2022-12-19T04:23:49.058Z,30.13
2022-12-19T04:26:38.196Z,28.90
2022-12-19T04:29:27.205Z,30.70
2022-12-19T04:32:14.473Z,34.50
2022-12-19T04:35:01.337Z,32.93
2022-12-19T04:37:47.772Z,25.37
2022-12-19T04:40:40.986Z,29.90
2022-12-19T04:43:27.690Z,30.33
2022-12-19T04:46:14.278Z,29.20
2022-12-19T04:49:01.636Z,33.97
2022-12-19T04:51:48.085Z,28.13
2022-12-19T04:54:34.568Z,33.70
2022-12-19T04:57:21.311Z,45.20
2022-12-19T05:00:08.725Z,48.60
2022-12-19T05:02:55.360Z,32.43
2022-12-19T05:05:42.297Z,39.70
2022-12-19T05:08:29.368Z,31.10
2022-12-19T05:11:19.786Z,30.40
2022-12-19T05:14:06.529Z,31.27
2022-12-19T05:16:57.340Z,29.37
2022-12-19T05:19:47.285Z,35.87
2022-12-19T05:22:33.835Z,35.70
2022-12-19T05:25:20.265Z,28.27
2022-12-19T05:28:06.726Z,44.93
2022-12-19T05:30:52.890Z,81.17
2022-12-19T05:33:41.018Z,55.47
2022-12-19T05:36:32.325Z,47.97
2022-12-19T05:39:19.106Z,28.63
2022-12-19T05:42:08.446Z,30.37
2022-12-19T05:44:58.299Z,27.90
2022-12-19T05:47:48.220Z,32.57
2022-12-19T05:50:34.835Z,34.00
2022-12-19T05:53:29.226Z,28.57
2022-12-19T05:56:21.248Z,29.27
2022-12-19T05:59:07.586Z,35.40
2022-12-19T06:01:54.290Z,28.07
2022-12-19T06:04:40.680Z,30.43
2022-12-19T06:07:26.989Z,42.00
2022-12-19T06:10:13.432Z,112.77
2022-12-19T06:12:59.989Z,65.17
2022-12-19T06:15:46.274Z,33.40
2022-12-19T06:18:32.738Z,67.10
2022-12-19T06:21:22.253Z,45.67
2022-12-19T06:24:08.716Z,45.53
2022-12-19T06:26:55.395Z,37.00
2022-12-19T06:29:41.586Z,32.40
2022-12-19T06:32:28.131Z,29.87
2022-12-19T06:35:14.390Z,29.47
2022-12-19T06:38:01.232Z,29.87
2022-12-19T06:41:06.121Z,28.00
2022-12-19T06:43:53.809Z,32.70
2022-12-19T06:46:41.524Z,32.77
2022-12-19T06:49:28.378Z,26.33
2022-12-19T06:52:16.510Z,23.83
2022-12-19T06:55:02.891Z,29.03
2022-12-19T06:57:49.411Z,26.10
2022-12-19T07:00:36.076Z,29.97
2022-12-19T07:03:25.846Z,30.23
2022-12-19T07:06:12.563Z,27.83
2022-12-19T07:08:59.064Z,27.97
2022-12-19T07:11:45.630Z,35.67
2022-12-19T07:14:31.806Z,27.20
2022-12-19T07:17:19.175Z,24.30
2022-12-19T07:20:06.254Z,28.30
2022-12-19T07:22:52.944Z,30.33
2022-12-19T07:25:40.393Z,24.57
2022-12-19T07:28:26.924Z,28.47
2022-12-19T07:31:13.407Z,29.13
2022-12-19T07:33:59.672Z,24.77
2022-12-19T07:36:46.210Z,30.90
2022-12-19T07:39:32.407Z,26.60
2022-12-19T07:42:19.195Z,24.90
2022-12-19T07:45:05.985Z,34.67
2022-12-19T07:47:52.297Z,22.50
2022-12-19T07:50:38.503Z,26.57
2022-12-19T07:53:25.543Z,28.33
2022-12-19T07:56:12.098Z,65.50
2022-12-19T07:58:58.496Z,58.10
2022-12-19T08:01:44.832Z,83.23
2022-12-19T08:04:31.223Z,44.47
2022-12-19T08:07:17.774Z,41.80
2022-12-19T08:10:04.626Z,24.07
2022-12-19T08:12:50.881Z,30.80
2022-12-19T08:15:37.256Z,27.43
2022-12-19T08:18:23.814Z,26.83
2022-12-19T08:21:10.790Z,21.03
2022-12-19T08:23:56.999Z,29.23
2022-12-19T08:26:47.565Z,21.83
2022-12-19T08:29:34.319Z,27.67
2022-12-19T08:32:21.787Z,27.10
2022-12-19T08:35:09.045Z,23.90
2022-12-19T08:37:55.564Z,28.67
2022-12-19T08:40:47.234Z,26.37
2022-12-19T08:43:34.459Z,22.37
2022-12-19T08:46:21.987Z,25.10
2022-12-19T08:49:08.302Z,27.97
2022-12-19T08:51:54.716Z,43.33
2022-12-19T08:54:40.959Z,32.40
2022-12-19T08:57:27.220Z,25.00
2022-12-19T09:00:13.880Z,22.30
2022-12-19T09:03:02.828Z,26.93
2022-12-19T09:06:07.889Z,27.37
2022-12-19T09:09:00.114Z,26.27
2022-12-19T09:11:48.238Z,31.10
2022-12-19T09:14:35.631Z,26.57
2022-12-19T09:17:21.945Z,30.87
2022-12-19T09:20:09.180Z,30.53
2022-12-19T09:22:55.316Z,24.40
2022-12-19T09:25:41.739Z,24.83
2022-12-19T09:28:28.479Z,26.47
2022-12-19T09:31:18.248Z,28.93
2022-12-19T09:34:04.874Z,26.50
2022-12-19T09:36:51.131Z,25.67
2022-12-19T09:39:37.638Z,24.70
2022-12-19T09:42:55.148Z,26.10
2022-12-19T09:45:56.624Z,28.90
2022-12-19T09:48:43.197Z,22.37
2022-12-19T09:51:44.060Z,26.23
2022-12-19T09:54:43.768Z,21.17
2022-12-19T09:57:56.000Z,21.57
2022-12-19T10:00:45.203Z,25.50
2022-12-19T10:03:40.505Z,25.37
2022-12-19T10:07:20.388Z,26.37
2022-12-19T10:11:41.749Z,25.03
2022-12-19T10:13:07.660Z,24.17
2022-12-19T10:16:11.524Z,20.87
2022-12-19T10:19:02.059Z,23.43
2022-12-19T10:22:32.172Z,22.73
2022-12-19T10:25:18.232Z,23.57
2022-12-19T10:28:32.939Z,25.30
2022-12-19T10:31:53.957Z,25.33
2022-12-19T10:34:44.049Z,22.80
2022-12-19T10:37:47.454Z,20.93
2022-12-19T10:40:55.275Z,23.97
2022-12-19T10:44:08.135Z,22.67
2022-12-19T10:46:54.683Z,19.80
2022-12-19T10:49:41.152Z,19.93
2022-12-19T10:52:56.821Z,18.30
2022-12-19T10:55:47.425Z,24.73
2022-12-19T10:58:36.217Z,22.30
2022-12-19T11:01:27.387Z,24.60
2022-12-19T11:04:26.015Z,18.17
2022-12-19T11:07:20.393Z,23.17
2022-12-19T11:12:09.925Z,20.00
2022-12-19T11:19:15.059Z,20.07
2022-12-19T11:23:29.859Z,22.30
2022-12-19T11:29:30.548Z,18.40
2022-12-19T11:29:34.223Z,17.70
2022-12-19T11:30:41.630Z,16.83
2022-12-19T11:33:16.353Z,16.23
2022-12-19T11:36:06.008Z,15.90
2022-12-19T11:38:54.222Z,15.00
2022-12-19T11:41:54.589Z,15.43
2022-12-19T11:44:58.174Z,17.23
2022-12-19T11:47:51.888Z,16.50
2022-12-19T11:51:01.296Z,14.67
2022-12-19T11:54:29.909Z,12.93
2022-12-19T11:57:16.423Z,15.57
2022-12-19T12:00:05.592Z,18.53
2022-12-19T12:03:03.010Z,18.47
2022-12-19T12:05:51.490Z,17.13
2022-12-19T12:11:24.595Z,16.23
2022-12-19T12:17:58.475Z,13.87
2022-12-19T12:31:02.599Z,18.07
2022-12-19T12:31:04.572Z,12.60
2022-12-19T12:31:58.104Z,15.30
2022-12-19T12:32:05.783Z,13.33
2022-12-19T12:35:19.208Z,16.10
2022-12-19T12:35:31.530Z,16.53
2022-12-19T12:39:41.384Z,11.93
2022-12-19T12:42:44.736Z,14.30
2022-12-19T12:45:36.461Z,15.40
2022-12-19T12:48:29.029Z,13.60
2022-12-19T12:51:16.163Z,11.13
2022-12-19T12:54:07.629Z,14.50
2022-12-19T12:56:55.461Z,12.90
2022-12-19T12:59:45.840Z,13.03
2022-12-19T13:02:33.297Z,15.37
2022-12-19T13:05:31.861Z,15.23
2022-12-19T13:08:47.877Z,10.47
2022-12-19T13:11:56.788Z,19.13
2022-12-19T13:14:46.105Z,12.47
2022-12-19T13:17:32.202Z,11.27
2022-12-19T13:20:18.630Z,20.40
2022-12-19T13:23:39.896Z,20.43
2022-12-19T13:26:46.939Z,18.07
2022-12-19T13:29:53.999Z,17.53
2022-12-19T13:32:40.519Z,12.77
2022-12-19T13:36:28.516Z,16.93
2022-12-19T13:40:00.635Z,12.20
2022-12-19T13:42:29.502Z,13.07
2022-12-19T13:45:27.625Z,17.77
2022-12-19T13:48:18.619Z,20.07
2022-12-19T13:51:08.427Z,16.30
2022-12-19T13:53:59.612Z,13.13
2022-12-19T13:56:46.746Z,14.50
2022-12-19T13:59:37.127Z,19.10
2022-12-19T14:02:30.104Z,14.47
2022-12-19T14:06:17.778Z,18.83
2022-12-19T14:08:39.976Z,23.60
2022-12-19T14:12:00.288Z,15.53
2022-12-19T14:15:13.546Z,23.93
2022-12-19T14:18:45.400Z,23.77
2022-12-19T14:22:11.105Z,25.53
2022-12-19T14:24:34.271Z,23.33
2022-12-19T14:28:24.035Z,19.63
2022-12-19T14:30:36.796Z,22.17
2022-12-19T14:33:45.773Z,19.30
2022-12-19T14:36:46.978Z,20.67
2022-12-19T14:39:36.230Z,19.80
2022-12-19T14:43:57.812Z,20.00
2022-12-19T14:52:08.329Z,16.87
2022-12-19T14:53:36.574Z,17.37
2022-12-19T14:54:35.860Z,19.00
2022-12-19T14:56:27.662Z,18.83
2022-12-19T14:59:52.127Z,16.53
2022-12-19T15:02:43.596Z,23.53
2022-12-19T15:05:33.499Z,23.20
2022-12-19T15:09:17.534Z,21.93
2022-12-19T15:14:04.119Z,26.93
2022-12-19T15:15:34.361Z,23.03
2022-12-19T15:18:25.795Z,34.83
2022-12-19T15:21:14.192Z,20.73
2022-12-19T15:24:00.665Z,21.23
2022-12-19T15:26:52.322Z,20.23
2022-12-19T15:29:38.863Z,33.87
2022-12-19T15:32:25.231Z,21.97
2022-12-19T15:35:17.109Z,26.13
2022-12-19T15:38:03.295Z,21.90
2022-12-19T15:40:49.842Z,21.00
2022-12-19T15:44:03.020Z,28.57
2022-12-19T15:46:48.332Z,31.40
2022-12-19T15:49:35.432Z,32.40
2022-12-19T15:52:22.461Z,39.27
2022-12-19T15:55:13.917Z,31.63
2022-12-19T15:58:05.046Z,33.10
2022-12-19T16:00:58.580Z,24.40
2022-12-19T16:03:45.327Z,26.37
2022-12-19T16:06:31.694Z,30.83
2022-12-19T16:09:23.950Z,28.73
2022-12-19T16:12:19.229Z,27.00
2022-12-19T16:15:13.153Z,24.40
2022-12-19T16:18:01.623Z,24.90
2022-12-19T16:20:48.574Z,26.47
2022-12-19T16:23:35.090Z,32.03
2022-12-19T16:26:34.346Z,38.40
2022-12-19T16:29:23.869Z,32.37
2022-12-19T16:32:13.597Z,31.37
2022-12-19T16:34:59.794Z,30.93
2022-12-19T16:37:46.130Z,31.20
2022-12-19T16:40:33.088Z,37.13
2022-12-19T16:43:31.308Z,31.37
2022-12-19T16:46:20.851Z,27.77
2022-12-19T16:49:13.811Z,30.50
2022-12-19T16:52:00.591Z,29.77
2022-12-19T16:54:46.881Z,25.87
2022-12-19T16:57:33.464Z,29.23
2022-12-19T17:00:21.500Z,31.13
2022-12-19T17:03:18.348Z,31.77
2022-12-19T17:06:04.821Z,33.23
2022-12-19T17:08:51.121Z,32.10
2022-12-19T17:11:45.343Z,26.43
2022-12-19T17:14:32.089Z,29.30
2022-12-19T17:17:18.318Z,26.40
2022-12-19T17:20:05.259Z,30.37
2022-12-19T17:22:51.564Z,52.87
2022-12-19T17:25:38.574Z,34.83
2022-12-19T17:28:24.997Z,40.17
2022-12-19T17:31:21.726Z,42.70
2022-12-19T17:34:17.249Z,40.13
2022-12-19T17:37:05.184Z,50.67
2022-12-19T17:39:51.453Z,37.30
2022-12-19T17:42:37.796Z,45.27
2022-12-19T17:45:27.030Z,39.80
2022-12-19T17:48:26.229Z,42.30
2022-12-19T17:51:13.531Z,35.73
2022-12-19T17:53:59.828Z,41.53
2022-12-19T17:56:46.964Z,36.03
2022-12-19T17:59:33.478Z,31.97
2022-12-19T18:02:22.940Z,38.27
2022-12-19T18:05:18.779Z,30.90
2022-12-19T18:08:16.883Z,32.00
2022-12-19T18:11:07.592Z,33.70
2022-12-19T18:13:54.260Z,35.73
2022-12-19T18:16:41.518Z,30.67
2022-12-19T18:19:32.449Z,31.17
2022-12-19T18:22:18.980Z,33.00
2022-12-19T18:25:16.580Z,26.93
2022-12-19T18:28:02.920Z,38.27
2022-12-19T18:30:51.117Z,32.30
2022-12-19T18:33:39.696Z,27.53
2022-12-19T18:36:29.416Z,32.60
2022-12-19T18:39:22.817Z,24.37
2022-12-19T18:42:19.720Z,27.90
2022-12-19T18:45:06.735Z,29.13
2022-12-19T18:47:56.320Z,25.87
2022-12-19T18:50:42.869Z,27.30
2022-12-19T18:53:35.193Z,29.43
2022-12-19T18:56:22.361Z,27.33
2022-12-19T18:59:09.101Z,28.87
2022-12-19T19:01:55.900Z,21.90
2022-12-19T19:04:42.655Z,28.87
2022-12-19T19:07:28.935Z,24.13
2022-12-19T19:10:29.038Z,23.87
2022-12-19T19:13:26.061Z,25.33
2022-12-19T19:16:22.172Z,26.13
2022-12-19T19:19:13.770Z,28.70
2022-12-19T19:22:00.259Z,24.50
2022-12-19T19:24:46.399Z,20.33
2022-12-19T19:27:32.870Z,23.67
2022-12-19T19:30:19.547Z,26.90
2022-12-19T19:33:19.411Z,28.30
2022-12-19T19:36:12.341Z,26.60
2022-12-19T19:38:59.312Z,40.47
2022-12-19T19:41:45.575Z,38.83
2022-12-19T19:44:32.371Z,42.23
2022-12-19T19:47:25.208Z,50.20
2022-12-19T19:50:12.102Z,46.93
2022-12-19T19:52:58.813Z,43.97
2022-12-19T19:55:45.012Z,31.57
2022-12-19T19:58:31.975Z,31.87
2022-12-19T20:01:18.361Z,36.00
2022-12-19T20:04:04.938Z,31.40
2022-12-19T20:06:51.617Z,30.80
2022-12-19T20:09:37.887Z,30.97
2022-12-19T20:12:24.630Z,28.00
2022-12-19T20:15:10.816Z,31.63
2022-12-19T20:17:56.964Z,23.10
2022-12-19T20:20:43.411Z,28.07
2022-12-19T20:23:29.814Z,26.30
2022-12-19T20:26:16.998Z,31.07
2022-12-19T20:29:06.373Z,25.70
2022-12-19T20:31:52.807Z,27.13
2022-12-19T20:34:39.071Z,29.00
2022-12-19T20:37:25.706Z,25.03
2022-12-19T20:40:12.860Z,24.67
2022-12-19T20:42:59.432Z,25.77
2022-12-19T20:45:45.673Z,26.77
2022-12-19T20:48:32.649Z,29.77
2022-12-19T20:51:20.737Z,32.63
2022-12-19T20:54:08.607Z,28.17
2022-12-19T20:56:54.922Z,29.20
2022-12-19T20:59:41.127Z,26.73
2022-12-19T21:02:27.920Z,30.70
2022-12-19T21:05:14.568Z,27.20
2022-12-19T21:08:01.065Z,25.03
2022-12-19T21:10:48.256Z,26.17
2022-12-19T21:13:35.815Z,24.47
2022-12-19T21:16:23.204Z,33.03
2022-12-19T21:19:09.852Z,33.27
2022-12-19T21:21:56.290Z,25.83
2022-12-19T21:24:42.538Z,26.70
2022-12-19T21:27:28.780Z,26.10
2022-12-19T21:30:15.239Z,22.00
2022-12-19T21:33:01.466Z,24.70
2022-12-19T21:35:47.794Z,22.23
2022-12-19T21:38:34.822Z,24.23
2022-12-19T21:41:21.521Z,22.53
2022-12-19T21:44:07.965Z,28.67
2022-12-19T21:46:54.600Z,25.73
2022-12-19T21:49:40.794Z,27.83
2022-12-19T21:52:27.374Z,22.10
2022-12-19T21:55:13.896Z,33.30
2022-12-19T21:58:00.448Z,31.90
2022-12-19T22:00:46.965Z,31.30
2022-12-19T22:03:33.593Z,26.17
2022-12-19T22:06:27.851Z,22.77
2022-12-19T22:09:17.903Z,23.70
2022-12-19T22:12:04.446Z,26.30
2022-12-19T22:14:50.653Z,25.97
2022-12-19T22:17:37.128Z,29.07
2022-12-19T22:20:23.165Z,22.77
2022-12-19T22:23:13.278Z,22.37
2022-12-19T22:26:11.998Z,27.73
2022-12-19T22:28:59.075Z,29.17
2022-12-19T22:31:46.216Z,27.37
2022-12-19T22:34:32.841Z,23.97
2022-12-19T22:37:19.265Z,31.37
2022-12-19T22:40:06.517Z,30.33
2022-12-19T22:42:53.010Z,28.67
2022-12-19T22:45:41.055Z,38.07
2022-12-19T22:48:27.283Z,41.03
2022-12-19T22:51:15.294Z,31.30
2022-12-19T22:54:02.024Z,37.43
2022-12-19T22:56:51.657Z,27.63
2022-12-19T22:59:38.230Z,31.30
2022-12-19T23:02:24.721Z,29.00
2022-12-19T23:05:11.348Z,38.83
2022-12-19T23:07:57.596Z,25.23
2022-12-19T23:10:44.136Z,27.20
2022-12-19T23:13:30.260Z,24.23
2022-12-19T23:16:17.163Z,21.77
2022-12-19T23:19:04.873Z,25.27
2022-12-19T23:21:51.128Z,23.73
2022-12-19T23:24:37.422Z,23.37
2022-12-19T23:27:24.025Z,23.33
2022-12-19T23:30:11.292Z,21.43
2022-12-19T23:32:57.580Z,25.37
2022-12-19T23:35:44.018Z,23.07
2022-12-19T23:38:30.794Z,20.30
2022-12-19T23:41:17.391Z,19.70
2022-12-19T23:44:21.191Z,23.20
2022-12-19T23:47:07.639Z,22.43
2022-12-19T23:49:54.043Z,20.20
2022-12-19T23:52:41.787Z,20.40
2022-12-19T23:55:28.047Z,21.07
2022-12-19T23:58:19.155Z,21.67
